createdAt,value
2022-09-12T00:01:34.598Z,16.58
2022-09-12T00:04:40.437Z,16.75
2022-09-12T00:07:47.016Z,16.64
2022-09-12T00:10:58.080Z,16.68
2022-09-12T00:14:02.995Z,16.65
2022-09-12T00:17:13.359Z,16.61
2022-09-12T00:20:21.732Z,16.60
2022-09-12T00:23:27.486Z,16.66
2022-09-12T00:26:33.993Z,16.35
2022-09-12T00:29:39.926Z,16.35
2022-09-12T00:32:46.190Z,16.35
2022-09-12T00:36:03.467Z,16.29
2022-09-12T00:39:09.357Z,16.30
2022-09-12T00:42:14.475Z,16.31
2022-09-12T00:45:20.752Z,16.30
2022-09-12T00:48:31.261Z,16.31
2022-09-12T00:51:37.763Z,16.35
2022-09-12T00:54:46.180Z,16.24
2022-09-12T00:57:55.487Z,16.16
2022-09-12T01:01:02.970Z,16.20
2022-09-12T01:04:08.126Z,16.19
2022-09-12T01:07:14.252Z,16.33
2022-09-12T01:10:21.046Z,16.39
2022-09-12T01:13:25.710Z,16.42
2022-09-12T01:16:31.834Z,16.38
2022-09-12T01:20:15.837Z,16.37
2022-09-12T01:23:32.240Z,16.41
2022-09-12T01:27:31.165Z,16.47
2022-09-12T01:30:50.079Z,16.53
2022-09-12T01:34:25.626Z,16.70
2022-09-12T01:37:44.054Z,16.82
2022-09-12T01:41:06.148Z,16.96
2022-09-12T01:44:30.989Z,17.05
2022-09-12T01:47:47.265Z,17.03
2022-09-12T01:50:57.759Z,17.26
2022-09-12T01:54:07.845Z,17.29
2022-09-12T01:57:15.528Z,17.38
2022-09-12T02:00:17.952Z,17.43
2022-09-12T02:03:34.915Z,17.40
2022-09-12T02:07:05.221Z,17.50
2022-09-12T02:10:15.648Z,17.52
2022-09-12T02:13:30.003Z,17.58
2022-09-12T02:16:25.843Z,17.60
2022-09-12T02:19:33.081Z,17.59
2022-09-12T02:22:23.064Z,17.60
2022-09-12T02:25:17.338Z,17.64
2022-09-12T02:28:35.823Z,17.69
2022-09-12T02:31:45.335Z,17.80
2022-09-12T02:35:08.306Z,17.80
2022-09-12T02:38:18.446Z,17.91
2022-09-12T02:41:23.944Z,18.05
2022-09-12T02:44:28.488Z,18.17
2022-09-12T02:47:44.226Z,18.29
2022-09-12T02:50:50.230Z,18.37
2022-09-12T02:53:55.975Z,18.32
2022-09-12T02:57:01.473Z,18.46
2022-09-12T03:00:10.004Z,18.57
2022-09-12T03:03:58.478Z,18.64
2022-09-12T03:07:21.458Z,18.54
2022-09-12T03:10:48.785Z,18.49
2022-09-12T03:14:16.650Z,18.54
2022-09-12T03:17:43.396Z,18.55
2022-09-12T03:21:18.399Z,18.58
2022-09-12T03:24:28.868Z,18.47
2022-09-12T03:27:22.569Z,18.44
2022-09-12T03:30:17.779Z,18.46
2022-09-12T03:33:09.647Z,18.43
2022-09-12T03:36:07.914Z,18.49
2022-09-12T03:39:00.545Z,18.42
2022-09-12T03:42:05.765Z,18.52
2022-09-12T03:45:10.612Z,18.53
2022-09-12T03:48:16.484Z,18.53
2022-09-12T03:51:24.562Z,18.55
2022-09-12T03:54:30.555Z,18.60
2022-09-12T03:57:37.307Z,18.67
2022-09-12T04:00:44.747Z,18.70
2022-09-12T04:03:51.157Z,18.62
2022-09-12T04:06:57.645Z,18.59
2022-09-12T04:10:04.464Z,18.44
2022-09-12T04:13:03.941Z,18.43
2022-09-12T04:16:14.577Z,18.42
2022-09-12T04:19:19.266Z,18.24
2022-09-12T04:22:24.894Z,18.32
2022-09-12T04:25:31.128Z,18.48
2022-09-12T04:28:37.213Z,18.51
2022-09-12T04:31:42.709Z,18.68
2022-09-12T04:34:48.457Z,18.70
2022-09-12T04:37:54.247Z,18.58
2022-09-12T04:40:59.317Z,18.86
2022-09-12T04:44:12.520Z,18.70
2022-09-12T04:47:17.681Z,18.55
2022-09-12T04:50:24.436Z,18.68
2022-09-12T04:53:29.617Z,18.75
2022-09-12T04:56:35.125Z,18.97
2022-09-12T04:59:40.756Z,19.08
2022-09-12T05:02:49.162Z,19.00
2022-09-12T05:05:56.538Z,19.07
2022-09-12T05:09:03.641Z,19.27
2022-09-12T05:12:09.405Z,19.31
2022-09-12T05:15:15.229Z,19.34
2022-09-12T05:18:20.467Z,19.45
2022-09-12T05:21:27.313Z,19.54
2022-09-12T05:24:32.702Z,19.85
2022-09-12T05:27:39.310Z,19.97
2022-09-12T05:30:45.305Z,19.96
2022-09-12T05:33:53.166Z,19.94
2022-09-12T05:36:59.687Z,20.03
2022-09-12T05:40:06.354Z,20.24
2022-09-12T05:43:12.234Z,20.24
2022-09-12T05:46:24.822Z,20.11
2022-09-12T05:49:30.261Z,20.16
2022-09-12T05:52:29.988Z,20.17
2022-09-12T05:55:23.572Z,20.33
2022-09-12T05:58:30.339Z,20.43
2022-09-12T06:01:36.264Z,20.22
2022-09-12T06:04:42.121Z,20.46
2022-09-12T06:07:48.630Z,20.48
2022-09-12T06:10:54.217Z,20.49
2022-09-12T06:14:00.175Z,20.35
2022-09-12T06:17:06.824Z,20.17
2022-09-12T06:20:11.617Z,20.14
2022-09-12T06:23:17.559Z,19.98
2022-09-12T06:26:24.801Z,20.05
2022-09-12T06:29:31.491Z,20.06
2022-09-12T06:32:37.314Z,20.08
2022-09-12T06:35:44.142Z,20.04
2022-09-12T06:38:49.668Z,20.01
2022-09-12T06:41:55.270Z,20.24
2022-09-12T06:45:02.695Z,20.39
2022-09-12T06:48:09.768Z,20.56
2022-09-12T06:51:18.598Z,20.62
2022-09-12T06:54:25.867Z,20.75
2022-09-12T06:57:34.201Z,20.87
2022-09-12T07:00:39.506Z,20.78
2022-09-12T07:03:44.710Z,20.64
2022-09-12T07:06:55.106Z,20.70
2022-09-12T07:10:00.431Z,20.53
2022-09-12T07:13:09.389Z,20.47
2022-09-12T07:16:19.882Z,20.40
2022-09-12T07:19:23.642Z,20.34
2022-09-12T07:22:31.219Z,20.25
2022-09-12T07:25:37.043Z,20.21
2022-09-12T07:28:45.147Z,20.18
2022-09-12T07:31:50.915Z,20.08
2022-09-12T07:34:58.701Z,19.96
2022-09-12T07:38:06.146Z,19.84
2022-09-12T07:41:12.302Z,19.66
2022-09-12T07:44:17.664Z,19.60
2022-09-12T07:47:24.015Z,19.64
2022-09-12T07:50:29.290Z,19.49
2022-09-12T07:53:35.994Z,19.46
2022-09-12T07:56:41.813Z,19.53
2022-09-12T07:59:52.940Z,19.46
2022-09-12T08:02:56.663Z,19.30
2022-09-12T08:06:02.673Z,19.35
2022-09-12T08:09:08.856Z,19.38
2022-09-12T08:12:14.205Z,19.51
2022-09-12T08:15:20.535Z,19.52
2022-09-12T08:18:26.242Z,19.60
2022-09-12T08:21:35.038Z,19.83
2022-09-12T08:24:40.621Z,19.62
2022-09-12T08:27:46.223Z,19.71
2022-09-12T08:30:51.820Z,19.86
2022-09-12T08:33:52.565Z,19.94
2022-09-12T08:36:57.838Z,20.19
2022-09-12T08:40:03.740Z,20.17
2022-09-12T08:43:39.681Z,20.26
2022-09-12T08:47:12.338Z,20.33
2022-09-12T08:50:25.857Z,20.55
2022-09-12T08:53:35.549Z,20.52
2022-09-12T08:56:42.570Z,20.54
2022-09-12T08:59:54.884Z,20.75
2022-09-12T09:03:20.909Z,20.97
2022-09-12T09:06:58.913Z,21.27
2022-09-12T09:10:38.200Z,21.40
2022-09-12T09:14:19.662Z,21.66
2022-09-12T09:17:34.908Z,22.22
2022-09-12T09:21:02.793Z,22.26
2022-09-12T09:24:12.290Z,22.31
2022-09-12T09:27:40.764Z,22.48
2022-09-12T09:30:44.265Z,22.46
2022-09-12T09:33:50.200Z,22.64
2022-09-12T09:37:18.972Z,22.68
2022-09-12T09:40:34.424Z,22.74
2022-09-12T09:43:40.144Z,23.03
2022-09-12T09:46:45.472Z,23.08
2022-09-12T09:49:50.287Z,23.25
2022-09-12T09:52:55.894Z,23.38
2022-09-12T09:56:02.733Z,23.59
2022-09-12T09:59:08.231Z,23.86
2022-09-12T10:02:31.129Z,24.08
2022-09-12T10:05:38.044Z,24.10
2022-09-12T10:08:48.123Z,24.19
2022-09-12T10:11:53.320Z,24.03
2022-09-12T10:14:59.504Z,24.26
2022-09-12T10:18:05.850Z,24.04
2022-09-12T10:21:10.595Z,24.05
2022-09-12T10:24:28.525Z,24.21
2022-09-12T10:27:47.441Z,24.25
2022-09-12T10:30:53.130Z,24.31
2022-09-12T10:33:57.601Z,24.57
2022-09-12T10:37:03.971Z,24.68
2022-09-12T10:40:10.839Z,24.83
2022-09-12T10:43:16.677Z,25.00
2022-09-12T10:46:37.258Z,25.16
2022-09-12T10:49:47.583Z,25.44
2022-09-12T10:52:53.707Z,25.68
2022-09-12T10:56:20.833Z,25.70
2022-09-12T10:59:57.695Z,25.71
2022-09-12T11:03:34.299Z,25.88
2022-09-12T11:06:48.190Z,25.89
2022-09-12T11:10:35.724Z,26.14
2022-09-12T11:14:09.957Z,26.20
2022-09-12T11:17:23.554Z,26.13
2022-09-12T11:24:35.832Z,26.05
2022-09-12T11:28:09.035Z,26.10
2022-09-12T11:31:47.293Z,26.18
2022-09-12T11:35:34.373Z,26.10
2022-09-12T11:39:03.454Z,26.43
2022-09-12T11:42:14.336Z,26.64
2022-09-12T11:45:32.954Z,26.78
2022-09-12T11:48:57.866Z,26.67
2022-09-12T11:52:19.337Z,26.36
2022-09-12T11:55:33.870Z,26.37
2022-09-12T11:58:42.998Z,26.27
2022-09-12T12:01:54.615Z,26.17
2022-09-12T12:05:21.256Z,26.16
2022-09-12T12:08:27.268Z,26.11
2022-09-12T12:11:48.630Z,26.20
2022-09-12T12:15:00.279Z,26.24
2022-09-12T12:18:20.733Z,26.17
2022-09-12T12:21:54.976Z,26.15
2022-09-12T12:25:28.836Z,26.23
2022-09-12T12:28:53.083Z,26.26
2022-09-12T12:32:21.663Z,26.17
2022-09-12T12:35:57.247Z,26.12
2022-09-12T12:39:03.147Z,26.15
2022-09-12T12:42:08.610Z,26.40
2022-09-12T12:45:18.640Z,26.24
2022-09-12T12:48:26.304Z,26.34
2022-09-12T12:51:44.410Z,26.31
2022-09-12T12:55:03.219Z,26.30
2022-09-12T12:58:13.123Z,26.25
2022-09-12T13:01:34.311Z,26.38
2022-09-12T13:04:36.842Z,26.04
2022-09-12T13:07:52.298Z,25.99
2022-09-12T13:11:10.164Z,26.01
2022-09-12T13:14:22.090Z,26.45
2022-09-12T13:17:30.547Z,26.43
2022-09-12T13:20:41.006Z,26.65
2022-09-12T13:23:42.749Z,26.78
2022-09-12T13:26:56.388Z,26.69
2022-09-12T13:30:01.825Z,26.67
2022-09-12T13:33:08.945Z,26.74
2022-09-12T13:36:19.408Z,26.88
2022-09-12T13:39:43.691Z,26.62
2022-09-12T13:43:06.504Z,26.47
2022-09-12T13:46:11.987Z,26.48
2022-09-12T13:49:24.641Z,26.50
2022-09-12T13:52:43.030Z,26.63
2022-09-12T13:55:52.802Z,26.66
2022-09-12T13:59:10.542Z,26.15
2022-09-12T14:02:16.106Z,26.29
2022-09-12T14:05:36.957Z,25.97
2022-09-12T14:08:44.889Z,25.96
2022-09-12T14:11:51.576Z,25.87
2022-09-12T14:15:00.271Z,25.82
2022-09-12T14:18:11.026Z,25.78
2022-09-12T14:21:24.894Z,25.65
2022-09-12T14:24:34.203Z,25.62
2022-09-12T14:27:43.882Z,25.62
2022-09-12T14:30:50.705Z,25.57
2022-09-12T14:34:12.724Z,25.61
2022-09-12T14:37:21.197Z,25.64
2022-09-12T14:40:38.853Z,25.64
2022-09-12T14:43:48.463Z,25.57
2022-09-12T14:46:54.032Z,25.62
2022-09-12T14:49:59.289Z,25.43
2022-09-12T14:53:25.696Z,25.42
2022-09-12T14:56:19.561Z,25.68
2022-09-12T14:59:46.170Z,25.45
2022-09-12T15:02:34.712Z,25.42
2022-09-12T15:05:33.265Z,25.20
2022-09-12T15:08:22.240Z,25.02
2022-09-12T15:11:14.635Z,25.09
2022-09-12T15:14:30.073Z,24.98
2022-09-12T15:17:35.172Z,24.96
2022-09-12T15:20:40.273Z,24.96
2022-09-12T15:23:51.751Z,24.85
2022-09-12T15:26:57.515Z,24.50
2022-09-12T15:30:03.185Z,24.47
2022-09-12T15:33:09.000Z,24.39
2022-09-12T15:36:14.904Z,24.30
2022-09-12T15:39:20.753Z,24.29
2022-09-12T15:42:27.196Z,24.13
2022-09-12T15:45:37.047Z,24.03
2022-09-12T15:48:42.443Z,24.04
2022-09-12T15:51:49.281Z,24.09
2022-09-12T15:54:55.683Z,24.00
2022-09-12T15:58:06.875Z,23.91
2022-09-12T16:01:09.892Z,23.85
2022-09-12T16:04:14.699Z,23.87
2022-09-12T16:07:21.420Z,23.84
2022-09-12T16:10:32.401Z,23.75
2022-09-12T16:13:32.364Z,23.41
2022-09-12T16:16:36.102Z,23.41
2022-09-12T16:19:42.492Z,23.38
2022-09-12T16:22:47.292Z,23.27
2022-09-12T16:25:52.940Z,23.26
2022-09-12T16:28:59.120Z,23.21
2022-09-12T16:32:04.840Z,23.18
2022-09-12T16:35:10.432Z,23.20
2022-09-12T16:38:12.391Z,23.14
2022-09-12T16:41:19.551Z,23.11
2022-09-12T16:44:24.807Z,23.06
2022-09-12T16:47:31.367Z,22.98
2022-09-12T16:50:38.062Z,22.99
2022-09-12T16:53:48.938Z,22.95
2022-09-12T16:56:56.436Z,22.91
2022-09-12T17:00:01.884Z,22.82
2022-09-12T17:03:09.463Z,22.92
2022-09-12T17:06:17.347Z,22.86
2022-09-12T17:09:17.756Z,22.83
2022-09-12T17:12:11.080Z,22.95
2022-09-12T17:15:16.676Z,22.90
2022-09-12T17:18:23.113Z,22.79
2022-09-12T17:21:28.945Z,22.78
2022-09-12T17:24:34.714Z,22.74
2022-09-12T17:27:41.266Z,22.26
2022-09-12T17:30:50.974Z,22.11
2022-09-12T17:33:57.359Z,22.11
2022-09-12T17:37:02.606Z,22.04
2022-09-12T17:40:09.119Z,21.95
2022-09-12T17:43:14.487Z,22.07
2022-09-12T17:46:21.343Z,22.12
2022-09-12T17:49:29.041Z,22.09
2022-09-12T17:52:34.971Z,22.13
2022-09-12T17:55:40.810Z,22.03
2022-09-12T17:58:48.039Z,21.88
2022-09-12T18:02:11.574Z,21.72
2022-09-12T18:05:17.189Z,21.50
2022-09-12T18:08:23.028Z,21.22
2022-09-12T18:11:28.738Z,20.94
2022-09-12T18:14:35.298Z,20.46
2022-09-12T18:17:42.356Z,20.29
2022-09-12T18:20:47.685Z,19.99
2022-09-12T18:23:53.380Z,19.77
2022-09-12T18:27:02.237Z,19.66
2022-09-12T18:30:21.034Z,19.47
2022-09-12T18:33:20.764Z,19.36
2022-09-12T18:36:45.478Z,19.31
2022-09-12T18:39:51.102Z,19.23
2022-09-12T18:42:57.423Z,19.22
2022-09-12T18:46:05.029Z,19.09
2022-09-12T18:49:11.700Z,19.21
2022-09-12T18:52:19.093Z,19.28
2022-09-12T18:55:25.469Z,19.57
2022-09-12T18:58:31.173Z,19.54
2022-09-12T19:01:41.507Z,19.43
2022-09-12T19:04:47.314Z,19.32
2022-09-12T19:07:46.899Z,19.20
2022-09-12T19:10:53.318Z,19.13
2022-09-12T19:14:00.242Z,19.09
2022-09-12T19:17:07.191Z,19.09
2022-09-12T19:20:13.210Z,19.15
2022-09-12T19:23:18.398Z,19.00
2022-09-12T19:26:24.679Z,18.90
2022-09-12T19:29:30.574Z,19.01
2022-09-12T19:32:29.909Z,19.00
2022-09-12T19:35:29.747Z,18.78
2022-09-12T19:38:35.291Z,18.68
2022-09-12T19:41:40.605Z,18.70
2022-09-12T19:44:40.027Z,18.93
2022-09-12T19:47:33.337Z,19.04
2022-09-12T19:50:40.426Z,19.02
2022-09-12T19:53:49.393Z,18.78
2022-09-12T19:56:55.193Z,18.80
2022-09-12T20:00:02.738Z,18.76
2022-09-12T20:03:08.425Z,18.62
2022-09-12T20:06:18.953Z,18.63
2022-09-12T20:09:24.957Z,18.70
2022-09-12T20:12:31.151Z,18.51
2022-09-12T20:15:30.710Z,18.47
2022-09-12T20:18:17.743Z,18.51
2022-09-12T20:21:20.441Z,18.53
2022-09-12T20:24:19.866Z,18.64
2022-09-12T20:27:24.562Z,18.63
2022-09-12T20:30:30.826Z,18.65
2022-09-12T20:33:36.355Z,18.59
2022-09-12T20:36:42.775Z,18.71
2022-09-12T20:39:50.983Z,18.68
2022-09-12T20:42:57.310Z,18.63
2022-09-12T20:46:03.880Z,18.63
2022-09-12T20:49:08.963Z,18.65
2022-09-12T20:52:14.725Z,18.54
2022-09-12T20:55:21.498Z,18.67
2022-09-12T20:58:28.306Z,18.79
2022-09-12T21:01:34.437Z,18.74
2022-09-12T21:04:54.196Z,18.52
2022-09-12T21:08:09.247Z,18.54
2022-09-12T21:11:29.403Z,18.67
2022-09-12T21:15:34.946Z,18.72
2022-09-12T21:18:40.558Z,18.76
2022-09-12T21:21:47.276Z,18.93
2022-09-12T21:24:52.692Z,18.64
2022-09-12T21:27:59.681Z,18.57
2022-09-12T21:31:04.980Z,18.64
2022-09-12T21:34:10.742Z,18.80
2022-09-12T21:37:16.344Z,18.88
2022-09-12T21:40:22.394Z,18.93
2022-09-12T21:43:28.537Z,19.09
2022-09-12T21:46:34.451Z,19.17
2022-09-12T21:49:40.215Z,19.19
2022-09-12T21:52:44.888Z,19.20
2022-09-12T21:55:50.713Z,19.04
2022-09-12T21:58:56.657Z,19.11
2022-09-12T22:02:01.855Z,19.11
2022-09-12T22:05:06.634Z,19.10
2022-09-12T22:08:12.281Z,19.08
2022-09-12T22:11:20.212Z,19.00
2022-09-12T22:14:26.342Z,18.94
2022-09-12T22:17:33.123Z,18.93
2022-09-12T22:20:38.880Z,18.85
2022-09-12T22:24:02.274Z,18.88
2022-09-12T22:27:07.719Z,18.83
2022-09-12T22:30:12.958Z,18.95
2022-09-12T22:33:18.398Z,18.71
2022-09-12T22:36:26.277Z,18.55
2022-09-12T22:39:30.966Z,18.47
2022-09-12T22:42:38.156Z,18.43
2022-09-12T22:45:43.865Z,18.23
2022-09-12T22:48:50.091Z,18.30
2022-09-12T22:51:56.161Z,18.19
2022-09-12T22:55:02.817Z,18.21
2022-09-12T22:58:10.585Z,18.19
2022-09-12T23:01:17.190Z,18.03
2022-09-12T23:04:24.577Z,17.96
2022-09-12T23:07:30.430Z,17.98
2022-09-12T23:10:36.627Z,17.73
2022-09-12T23:13:42.995Z,17.73
2022-09-12T23:16:47.823Z,17.83
2022-09-12T23:19:54.538Z,17.67
2022-09-12T23:23:01.569Z,17.57
2022-09-12T23:26:19.590Z,17.63
2022-09-12T23:29:18.533Z,17.73
2022-09-12T23:32:24.957Z,17.61
2022-09-12T23:35:31.685Z,17.61
2022-09-12T23:38:37.570Z,17.51
2022-09-12T23:41:43.092Z,17.48
2022-09-12T23:44:49.763Z,17.52
2022-09-12T23:47:55.623Z,17.42
2022-09-12T23:51:01.649Z,17.51
2022-09-12T23:54:00.735Z,17.49
2022-09-12T23:57:07.396Z,17.61
